CYZY

Mackenzie Airport

Mackenzie, British Columbia, Canada
METAR CYZY 210400Z AUTO VRB02KT 9SM CLR 15/11 A3015 RMK SLP225 DENSITY ALT 2400FT
Observed Flight Rules
Aug-21 @ 04:00 UTC (11 minutes ago) Visual Flight Rules
Wind Visibility Clouds
Variable at 2 knots 9 miles
  • Clear skies
Temperatures Readings
Current 15°C / 59°F
Dewpoint 11°C / 52°F
Humidity 77%
Altimeter 30.15" Hg
Pressure 1022.5 hPa
Elevation 690
METAR CYZY 210400Z AUTO VRB02KT 9SM CLR 15/11 A3015 RMK SLP225 DENSITY ALT 2400FT
Observed Flight Rules
Aug-21 @ 04:00 UTC
(11 minutes ago)
VFR
Wind Visibility
Variable at 2 knots 9 miles
Clouds
  • Clear skies
Temperature Dewpoint
15°C / 59°F 11°C / 52°F
Humidity Altimeter Pressure
77% 30.15" Hg 1022.5 hPa